Time;durP1;ratioP1;P1;durP2;ratioP2;P2;SDS_P1;SDS_P2;PMS_P1;PMS_P2;Temp;Humidity;BMP_temperature;BMP_pressure;BME280_temperature;BME280_humidity;BME280_pressure;Samples;Min_cycle;Max_cycle;Signal;HPM_P1;HPM_P2
2022/07/29 00:01:43;;;;;;;3.92;2.47;;;;;;;18.16;65.90;100988.46;1710030;81;21240;-54
2022/07/29 00:04:49;;;;;;;3.52;2.10;;;;;;;18.09;65.81;100989.00;1710528;83;21256;-54
2022/07/29 00:07:57;;;;;;;3.20;2.12;;;;;;;18.03;65.82;100996.73;1710528;82;21224;-54
2022/07/29 00:11:07;;;;;;;5.55;2.30;;;;;;;18.00;65.96;100995.77;1710418;82;21191;-55
2022/07/29 00:14:14;;;;;;;4.85;2.33;;;;;;;17.97;66.02;101000.88;1727591;81;21219;-56
2022/07/29 00:17:21;;;;;;;3.67;2.52;;;;;;;17.92;66.12;101002.89;1710212;84;21228;-55
2022/07/29 00:20:26;;;;;;;5.78;2.50;;;;;;;17.88;66.11;101001.09;1728649;82;21248;-55
2022/07/29 00:23:33;;;;;;;4.17;2.27;;;;;;;17.82;66.09;101003.83;1705026;83;21283;-55
2022/07/29 00:26:39;;;;;;;3.55;2.52;;;;;;;17.76;66.09;101000.48;1702907;84;21351;-56
2022/07/29 00:29:45;;;;;;;4.60;2.47;;;;;;;17.71;66.20;100998.89;1723760;83;21192;-57
2022/07/29 00:32:53;;;;;;;4.65;2.60;;;;;;;17.69;66.38;101003.25;1702806;84;21261;-55
2022/07/29 00:35:59;;;;;;;3.95;2.05;;;;;;;17.69;66.53;101004.64;1723692;83;21207;-55
2022/07/29 00:39:06;;;;;;;4.97;2.15;;;;;;;17.68;66.67;100999.28;1710947;83;21253;-55
2022/07/29 00:42:13;;;;;;;3.90;2.08;;;;;;;17.69;66.71;100995.47;1710327;82;21228;-56
2022/07/29 00:45:21;;;;;;;5.28;2.25;;;;;;;17.66;66.74;101001.42;1723680;83;21204;-56
2022/07/29 00:48:27;;;;;;;3.37;2.10;;;;;;;17.65;66.72;101005.23;1702776;84;21241;-54
2022/07/29 00:51:35;;;;;;;4.67;2.25;;;;;;;17.61;66.78;101004.81;1702901;83;21213;-55
2022/07/29 00:54:43;;;;;;;5.37;2.87;;;;;;;17.61;66.82;101006.72;1710370;83;21600;-56
2022/07/29 00:57:50;;;;;;;4.00;2.45;;;;;;;17.58;66.83;101003.81;1727161;83;21812;-56
2022/07/29 01:00:56;;;;;;;5.87;2.22;;;;;;;17.54;66.79;101006.69;1723732;83;21246;-55
2022/07/29 01:04:03;;;;;;;7.33;2.77;;;;;;;17.49;66.83;101006.44;1707439;84;21252;-55
2022/07/29 01:07:12;;;;;;;5.10;2.67;;;;;;;17.47;66.94;101003.56;1702760;83;21193;-54
2022/07/29 01:10:19;;;;;;;3.67;2.50;;;;;;;17.43;66.92;101007.75;1687427;84;21220;-55
2022/07/29 01:13:27;;;;;;;4.28;2.72;;;;;;;17.36;66.89;101009.10;1690885;83;21224;-54
2022/07/29 01:16:37;;;;;;;4.83;2.67;;;;;;;17.33;67.02;101012.83;1685831;83;21264;-56
2022/07/29 01:20:18;;;;;;;6.95;2.55;;;;;;;17.28;66.95;101007.05;1703607;84;21265;-55
2022/07/29 01:23:49;;;;;;;6.58;2.85;;;;;;;17.21;66.91;101013.92;1690333;83;21204;-55
2022/07/29 01:27:06;;;;;;;3.22;2.20;;;;;;;17.14;66.92;101021.31;1704918;83;21255;-54
2022/07/29 01:30:14;;;;;;;4.25;2.80;;;;;;;17.07;66.95;101019.56;1712064;83;21357;-56
2022/07/29 01:37:04;;;;;;;7.45;2.95;;;;;;;16.93;67.17;101017.25;1712312;83;21216;-55
2022/07/29 01:40:11;;;;;;;3.67;2.85;;;;;;;16.83;67.15;101015.36;1704961;83;21228;-54
2022/07/29 01:43:21;;;;;;;3.98;2.95;;;;;;;16.77;67.24;101020.83;1691463;83;21455;-54
2022/07/29 01:46:45;;;;;;;3.62;2.60;;;;;;;16.73;67.32;101019.53;1705107;83;21173;-54
2022/07/29 01:49:54;;;;;;;4.97;2.77;;;;;;;16.68;67.36;101020.11;1712060;83;21216;-54
2022/07/29 01:53:06;;;;;;;6.80;2.77;;;;;;;16.64;67.51;101017.42;1687098;83;21252;-56
2022/07/29 01:56:13;;;;;;;4.30;3.00;;;;;;;16.61;67.58;101020.59;1712153;83;21193;-56
2022/07/29 01:59:20;;;;;;;4.67;2.95;;;;;;;16.57;67.65;101017.05;1704948;83;21217;-56
2022/07/29 02:02:27;;;;;;;4.58;3.02;;;;;;;16.53;67.67;101011.58;1712186;82;21208;-56
2022/07/29 02:05:33;;;;;;;4.37;3.00;;;;;;;16.48;67.67;101012.70;1716531;83;21189;-56
2022/07/29 02:08:39;;;;;;;7.30;2.85;;;;;;;16.42;67.69;101008.28;1716586;83;21173;-56
2022/07/29 02:11:45;;;;;;;9.00;3.02;;;;;;;16.40;67.85;101006.23;1716803;83;21605;-56
2022/07/29 02:14:58;;;;;;;6.67;3.17;;;;;;;16.40;68.01;101003.98;1716358;83;21205;-56
2022/07/29 02:18:23;;;;;;;6.12;2.80;;;;;;;16.40;68.14;101003.47;1716512;83;21267;-55
2022/07/29 02:21:32;;;;;;;7.67;3.37;;;;;;;16.42;68.26;101015.19;1716129;83;21220;-54
2022/07/29 02:24:40;;;;;;;5.60;3.10;;;;;;;16.39;68.31;101012.80;1716510;83;21251;-55
2022/07/29 02:27:45;;;;;;;5.12;2.83;;;;;;;16.40;68.38;101016.42;1716611;83;21216;-55
2022/07/29 02:30:51;;;;;;;6.00;2.90;;;;;;;16.40;68.46;101020.05;1716533;83;21401;-55
2022/07/29 02:34:02;;;;;;;5.40;3.15;;;;;;;16.40;68.49;101015.04;1716800;83;21457;-55
2022/07/29 02:37:08;;;;;;;8.08;3.30;;;;;;;16.39;68.54;101023.02;1694376;83;21291;-55
2022/07/29 02:40:20;;;;;;;7.25;3.87;;;;;;;16.37;68.53;101024.59;1694540;83;21279;-55
2022/07/29 02:43:27;;;;;;;8.20;4.97;;;;;;;16.35;68.53;101025.31;1716729;83;21228;-55
2022/07/29 02:46:38;;;;;;;12.33;4.05;;;;;;;16.32;68.42;101027.09;1716301;83;21212;-56
2022/07/29 02:49:56;;;;;;;6.45;3.10;;;;;;;16.30;68.42;101029.19;1716626;83;21244;-57
2022/07/29 02:53:19;;;;;;;4.78;3.20;;;;;;;16.29;68.46;101021.96;1716848;83;21432;-56
2022/07/29 02:56:24;;;;;;;7.40;2.70;;;;;;;16.31;68.53;101035.06;1716900;83;21314;-56
2022/07/29 02:59:34;;;;;;;7.80;3.45;;;;;;;16.34;68.73;101036.05;1716770;83;21196;-54
2022/07/29 03:02:42;;;;;;;6.78;3.27;;;;;;;16.39;68.84;101037.66;1716784;83;21251;-56
2022/07/29 03:05:48;;;;;;;5.67;3.22;;;;;;;16.46;69.00;101036.94;1708926;80;21773;-56
2022/07/29 03:08:54;;;;;;;8.73;3.02;;;;;;;16.50;69.09;101033.57;1708586;83;21213;-56
2022/07/29 03:12:01;;;;;;;10.20;3.58;;;;;;;16.53;69.06;101036.45;1691586;83;21217;-56
2022/07/29 03:15:09;;;;;;;7.80;3.12;;;;;;;16.54;69.06;101040.40;1707249;83;21205;-56
2022/07/29 03:18:18;;;;;;;6.78;3.37;;;;;;;16.58;69.17;101036.72;1707177;83;21216;-55
2022/07/29 03:21:24;;;;;;;5.60;3.45;;;;;;;16.64;69.26;101044.21;1708605;83;21287;-55
2022/07/29 03:24:41;;;;;;;8.35;3.80;;;;;;;16.70;69.32;101042.89;1708619;83;21186;-55
2022/07/29 03:27:47;;;;;;;5.42;3.42;;;;;;;16.79;69.41;101045.83;1707205;84;21264;-54
2022/07/29 03:30:53;;;;;;;7.55;3.65;;;;;;;16.89;69.49;101049.63;1708560;83;21220;-56
2022/07/29 03:34:00;;;;;;;6.62;3.30;;;;;;;16.97;69.54;101047.59;1707396;83;21299;-55
2022/07/29 03:37:06;;;;;;;7.12;3.30;;;;;;;17.06;69.57;101051.91;1707645;83;21772;-55
2022/07/29 03:40:15;;;;;;;6.72;3.52;;;;;;;17.16;69.61;101052.93;1707326;83;21197;-55
2022/07/29 03:43:22;;;;;;;6.30;3.92;;;;;;;17.25;69.61;101056.72;1707232;84;21422;-56
2022/07/29 03:46:32;;;;;;;6.42;3.60;;;;;;;17.34;69.63;101057.43;1707217;84;21204;-56
2022/07/29 03:49:43;;;;;;;7.65;3.75;;;;;;;17.42;69.68;101057.27;1707341;84;21224;-55
2022/07/29 03:52:49;;;;;;;6.95;3.58;;;;;;;17.52;69.73;101060.56;1707560;83;21347;-55
2022/07/29 03:55:57;;;;;;;6.90;3.60;;;;;;;17.61;69.78;101058.81;1707209;83;21201;-57
2022/07/29 03:59:05;;;;;;;5.67;4.05;;;;;;;17.70;69.84;101066.40;1707324;83;21412;-56
2022/07/29 04:02:12;;;;;;;8.20;3.67;;;;;;;17.81;69.93;101057.50;1707196;83;21204;-56
2022/07/29 04:05:22;;;;;;;6.25;3.37;;;;;;;17.91;69.98;101057.98;1710758;81;21271;-57
2022/07/29 04:08:28;;;;;;;6.08;3.08;;;;;;;18.02;70.02;101072.62;1715328;83;21216;-57
2022/07/29 04:11:36;;;;;;;5.12;3.58;;;;;;;18.11;70.01;101071.37;1721261;83;21271;-54
2022/07/29 04:14:45;;;;;;;5.78;3.50;;;;;;;18.18;70.01;101061.17;1722566;83;21220;-57
2022/07/29 04:17:56;;;;;;;5.97;3.12;;;;;;;18.25;70.04;101065.36;1722678;83;21299;-55
2022/07/29 04:21:05;;;;;;;5.92;3.27;;;;;;;18.33;70.05;101077.09;1723851;83;21204;-54
2022/07/29 04:24:13;;;;;;;14.15;3.60;;;;;;;18.39;70.05;101073.53;1722544;83;21243;-55
2022/07/29 04:27:20;;;;;;;5.55;2.90;;;;;;;18.47;70.09;101079.41;1722752;83;21204;-56
2022/07/29 04:30:27;;;;;;;6.83;3.65;;;;;;;18.55;70.12;101077.27;1724068;83;21402;-56
2022/07/29 04:33:34;;;;;;;5.35;3.27;;;;;;;18.63;70.06;101074.30;1722726;83;21319;-56
2022/07/29 04:36:41;;;;;;;5.00;3.25;;;;;;;18.67;69.99;101083.92;1723085;83;21559;-55
2022/07/29 04:39:47;;;;;;;4.53;3.22;;;;;;;18.72;69.99;101081.91;1722366;83;21196;-56
2022/07/29 04:42:53;;;;;;;5.17;3.47;;;;;;;18.75;69.99;101083.72;1722547;83;21299;-55
2022/07/29 04:46:01;;;;;;;5.70;3.70;;;;;;;18.82;70.07;101086.51;1722463;83;21203;-55
2022/07/29 04:49:08;;;;;;;7.20;3.20;;;;;;;18.90;70.14;101084.36;1722703;83;21200;-55
2022/07/29 04:52:14;;;;;;;8.35;3.00;;;;;;;18.99;70.21;101077.55;1721969;83;21254;-56
2022/07/29 04:55:23;;;;;;;8.93;3.10;;;;;;;19.07;70.28;101073.17;1709835;83;21741;-55
2022/07/29 04:58:33;;;;;;;9.80;3.02;;;;;;;19.17;70.30;101072.75;1715378;81;21310;-57
2022/07/29 05:01:40;;;;;;;6.20;3.00;;;;;;;19.29;70.33;101076.07;1711298;82;21259;-56
2022/07/29 05:04:50;;;;;;;11.50;3.70;;;;;;;19.37;70.37;101075.52;1717494;81;21208;-54
2022/07/29 05:08:01;;;;;;;6.55;3.40;;;;;;;19.47;70.37;101076.80;1684850;83;21749;-56
2022/07/29 05:11:10;;;;;;;8.23;3.60;;;;;;;19.57;70.40;101077.17;1678127;85;21228;-56
2022/07/29 05:14:18;;;;;;;5.83;3.30;;;;;;;19.68;70.48;101078.45;1680242;85;21224;-56
2022/07/29 05:17:33;;;;;;;5.95;3.20;;;;;;;19.78;70.52;101074.13;1705721;82;21284;-55
2022/07/29 05:20:40;;;;;;;7.50;3.40;;;;;;;19.89;70.50;101073.98;1659998;85;21729;-54
2022/07/29 05:23:51;;;;;;;8.15;3.05;;;;;;;19.97;70.52;101073.73;1654426;85;21161;-56
2022/07/29 05:27:00;;;;;;;6.95;2.75;;;;;;;20.08;70.57;101073.05;1663214;84;21232;-58
2022/07/29 05:30:06;;;;;;;8.75;2.90;;;;;;;20.20;70.64;101076.89;1686667;85;21220;-57
2022/07/29 05:33:14;;;;;;;6.40;2.75;;;;;;;20.32;70.64;101077.88;1703146;83;21216;-58
2022/07/29 05:36:21;;;;;;;4.42;2.47;;;;;;;20.43;70.65;101081.34;1714872;83;21255;-57
2022/07/29 05:39:29;;;;;;;9.60;2.58;;;;;;;20.55;70.65;101079.02;1698390;83;21231;-58
2022/07/29 05:42:41;;;;;;;5.67;2.20;;;;;;;20.66;70.55;101081.64;1688967;83;21192;-56
2022/07/29 05:45:48;;;;;;;6.67;2.65;;;;;;;20.77;70.57;101079.53;1709823;84;21284;-58
2022/07/29 05:49:04;;;;;;;3.72;2.20;;;;;;;20.87;70.48;101081.25;1688315;84;21225;-56
2022/07/29 05:52:13;;;;;;;4.87;1.98;;;;;;;20.98;70.41;101092.25;1708873;83;21287;-57
2022/07/29 05:55:23;;;;;;;5.15;2.00;;;;;;;21.07;70.36;101086.70;1697258;82;21188;-54
2022/07/29 05:58:33;;;;;;;8.23;2.10;;;;;;;21.16;70.24;101088.98;1686922;83;21763;-54
2022/07/29 06:01:41;;;;;;;6.97;1.90;;;;;;;21.23;70.14;101088.36;1708694;83;21255;-57
2022/07/29 06:04:49;;;;;;;4.55;2.50;;;;;;;21.29;70.10;101088.88;1704120;82;21918;-55
2022/07/29 06:08:02;;;;;;;6.42;2.40;;;;;;;21.40;70.08;101097.87;1706993;81;21204;-57
2022/07/29 06:11:10;;;;;;;9.45;2.40;;;;;;;21.48;70.01;101083.64;1704626;82;22054;-56
2022/07/29 06:14:20;;;;;;;5.50;3.17;;;;;;;21.56;70.03;101083.35;1713611;83;21189;-56
2022/07/29 06:17:27;;;;;;;3.80;2.10;;;;;;;21.65;70.00;101086.14;1686398;82;21256;-58
2022/07/29 06:20:40;;;;;;;3.45;2.22;;;;;;;21.75;69.97;101084.20;1677365;85;21367;-55
2022/07/29 06:23:52;;;;;;;3.80;1.90;;;;;;;21.83;69.88;101087.59;1677960;85;21244;-57
2022/07/29 06:26:57;;;;;;;6.87;2.60;;;;;;;21.91;69.77;101082.23;1692784;83;21758;-57
2022/07/29 06:30:09;;;;;;;3.00;1.75;;;;;;;21.99;69.69;101083.32;1704247;84;21268;-57
2022/07/29 06:33:39;;;;;;;6.78;2.75;;;;;;;22.07;69.65;101085.80;1686271;83;21249;-55
2022/07/29 06:36:52;;;;;;;5.00;1.90;;;;;;;22.13;69.53;101082.92;1694612;84;21272;-56
2022/07/29 06:43:47;;;;;;;5.62;2.00;;;;;;;22.25;69.29;101078.78;1687331;83;21271;-55
2022/07/29 06:47:00;;;;;;;7.15;2.35;;;;;;;22.30;69.25;101082.25;1677695;84;21288;-55
2022/07/29 06:50:18;;;;;;;12.00;2.00;;;;;;;22.39;69.27;101082.26;1694471;82;21228;-55
2022/07/29 06:53:24;;;;;;;4.40;2.12;;;;;;;22.45;69.21;101068.75;1699723;82;21810;-55
2022/07/29 06:56:37;;;;;;;6.65;2.62;;;;;;;22.53;69.19;101067.06;1681106;83;21325;-56
2022/07/29 06:59:47;;;;;;;7.08;2.30;;;;;;;22.60;69.10;101075.63;1680717;84;21252;-54
2022/07/29 07:03:01;;;;;;;5.53;2.27;;;;;;;22.67;68.98;101070.81;1681069;84;21240;-58
2022/07/29 07:06:19;;;;;;;3.52;2.00;;;;;;;22.73;68.88;101074.58;1697594;83;21263;-55
2022/07/29 07:09:27;;;;;;;3.98;1.75;;;;;;;22.79;68.86;101072.22;1716107;82;21316;-57
2022/07/29 07:12:55;;;;;;;3.22;2.12;;;;;;;22.88;68.86;101078.62;1721466;83;21299;-60
2022/07/29 07:16:01;;;;;;;4.72;2.15;;;;;;;22.99;68.75;101081.16;1721446;83;21268;-60
2022/07/29 07:19:30;;;;;;;3.92;1.95;;;;;;;23.10;68.70;101076.13;1691443;85;21322;-60
2022/07/29 07:22:40;;;;;;;3.42;2.05;;;;;;;23.19;68.61;101081.13;1622776;86;21316;-56
2022/07/29 07:25:55;;;;;;;7.15;1.75;;;;;;;23.34;68.56;101082.09;1641343;86;21268;-57
2022/07/29 07:29:07;;;;;;;7.05;1.80;;;;;;;23.41;68.30;101085.06;1655112;86;21302;-51
2022/07/29 07:32:34;;;;;;;3.08;1.40;;;;;;;23.44;68.07;101093.49;1658237;84;21196;-51
2022/07/29 07:35:44;;;;;;;3.42;1.87;;;;;;;23.38;67.83;101084.69;1667160;84;21228;-57
2022/07/29 07:38:50;;;;;;;3.80;1.45;;;;;;;23.38;67.80;101095.33;1684095;84;21734;-57
2022/07/29 07:41:57;;;;;;;3.65;1.57;;;;;;;23.38;67.66;101100.06;1685649;84;21236;-58
2022/07/29 07:45:09;;;;;;;5.35;1.57;;;;;;;23.38;67.51;101095.87;1677198;83;21306;-58
2022/07/29 07:48:28;;;;;;;4.62;1.72;;;;;;;23.40;67.38;101104.87;1664722;84;21271;-58
2022/07/29 07:51:35;;;;;;;4.37;1.60;;;;;;;23.43;67.26;101102.98;1666179;84;22022;-57
2022/07/29 07:54:43;;;;;;;3.62;1.50;;;;;;;23.46;67.17;101092.70;1682039;83;22120;-57
2022/07/29 07:57:55;;;;;;;5.72;1.62;;;;;;;23.49;67.07;101090.82;1655350;83;21792;-57
2022/07/29 08:01:04;;;;;;;4.47;1.60;;;;;;;23.57;67.09;101101.64;1692336;83;21692;-55
2022/07/29 08:04:13;;;;;;;5.53;1.92;;;;;;;23.63;66.89;101095.64;1695166;83;21257;-56
2022/07/29 08:07:25;;;;;;;3.10;1.72;;;;;;;23.64;66.80;101100.98;1701550;83;21551;-55
2022/07/29 08:11:01;;;;;;;4.58;1.57;;;;;;;23.70;66.67;101094.95;1666391;84;21499;-55
2022/07/29 08:14:13;;;;;;;5.30;1.90;;;;;;;23.72;66.51;101099.22;1633097;86;21247;-56
2022/07/29 08:17:20;;;;;;;10.50;2.12;;;;;;;23.78;66.40;101090.38;1653905;85;21279;-55
2022/07/29 08:20:35;;;;;;;8.70;1.70;;;;;;;23.81;66.23;101091.29;1656886;86;21263;-56
2022/07/29 08:24:42;;;;;;;6.25;1.87;;;;;;;23.81;66.06;101102.48;1665124;84;21674;-56
2022/07/29 08:27:06;;;;;;;;;;;;;;;23.84;65.93;101098.65;1660340;85;21246;-56
2022/07/29 08:30:18;;;;;;;5.83;1.30;;;;;;;23.88;65.82;101099.84;1646796;84;20228;-55
2022/07/29 08:33:27;;;;;;;4.70;1.30;;;;;;;23.92;65.71;101098.81;1663364;86;21383;-54
2022/07/29 08:36:37;;;;;;;5.87;1.52;;;;;;;23.99;65.51;101093.41;1654347;86;21408;-55
2022/07/29 08:39:50;;;;;;;6.72;1.65;;;;;;;24.08;65.48;101089.16;1632347;86;21296;-55
2022/07/29 08:43:08;;;;;;;3.83;1.47;;;;;;;24.18;65.26;101097.75;1635492;87;21233;-58
2022/07/29 08:46:42;;;;;;;7.47;1.62;;;;;;;24.21;65.05;101083.29;1655346;84;21204;-57
2022/07/29 08:49:50;;;;;;;4.17;1.70;;;;;;;24.27;64.94;101082.29;1661331;85;21220;-59
2022/07/29 08:53:00;;;;;;;9.20;1.50;;;;;;;24.35;64.75;101083.30;1659213;85;21254;-58
2022/07/29 08:56:09;;;;;;;5.12;1.67;;;;;;;24.39;64.58;101085.88;1657223;84;21798;-58
2022/07/29 08:59:14;;;;;;;7.47;1.47;;;;;;;24.46;64.45;101084.34;1650141;85;21299;-59
2022/07/29 09:02:31;;;;;;;2.47;1.47;;;;;;;24.44;64.16;101083.73;1632286;88;21354;-58
2022/07/29 09:05:41;;;;;;;8.30;1.40;;;;;;;24.45;64.06;101086.28;1656205;86;21495;-58
2022/07/29 09:08:51;;;;;;;3.20;1.30;;;;;;;24.50;63.89;101083.59;1640279;86;21736;-56
2022/07/29 09:11:58;;;;;;;2.58;1.25;;;;;;;24.54;63.66;101090.41;1672755;84;21218;-57
2022/07/29 09:15:05;;;;;;;5.03;1.42;;;;;;;24.58;63.42;101083.19;1660165;85;21225;-57
2022/07/29 09:18:12;;;;;;;3.83;1.47;;;;;;;24.61;63.25;101075.69;1674516;85;21313;-59
2022/07/29 09:24:54;;;;;;;7.08;1.60;;;;;;;24.78;62.99;101077.17;1663369;85;21198;-55
2022/07/29 09:28:06;;;;;;;6.12;1.50;;;;;;;24.88;62.77;101072.59;1658141;85;21228;-57
2022/07/29 09:31:13;;;;;;;2.92;1.32;;;;;;;24.97;62.58;101073.86;1636188;86;21251;-54
2022/07/29 09:34:20;;;;;;;3.05;1.32;;;;;;;25.05;62.27;101078.22;1637842;86;21212;-59
2022/07/29 09:37:42;;;;;;;6.33;1.30;;;;;;;25.09;61.96;101085.00;1683868;83;21322;-58
2022/07/29 09:41:22;;;;;;;2.87;1.45;;;;;;;25.10;61.78;101078.86;1675227;84;21255;-56
2022/07/29 09:44:18;;;;;;;9.40;1.55;;;;;;;25.14;61.53;101074.42;1665734;84;21815;-58
2022/07/29 09:47:35;;;;;;;4.33;1.47;;;;;;;25.18;61.42;101082.64;1662410;85;21880;-58
2022/07/29 09:50:50;;;;;;;2.60;1.30;;;;;;;25.23;61.19;101082.16;1666783;85;21276;-56
2022/07/29 09:54:04;;;;;;;5.28;1.50;;;;;;;25.11;60.78;101083.34;1641130;86;21806;-53
2022/07/29 09:57:14;;;;;;;2.87;1.30;;;;;;;25.10;60.68;101085.86;1666775;84;21275;-54
2022/07/29 10:00:26;;;;;;;3.92;1.32;;;;;;;25.19;60.63;101075.92;1673091;83;21194;-55
2022/07/29 10:03:35;;;;;;;4.45;1.85;;;;;;;25.34;60.60;101075.64;1665574;83;21295;-53
2022/07/29 10:07:11;;;;;;;2.10;1.50;;;;;;;25.49;60.55;101081.52;1633059;86;21321;-53
2022/07/29 10:10:37;;;;;;;6.37;1.65;;;;;;;25.60;60.37;101085.31;1606312;87;22089;-52
2022/07/29 10:13:41;;;;;;;5.60;1.50;;;;;;;25.66;60.02;101079.53;1633165;86;21267;-48
2022/07/29 10:16:47;;;;;;;6.47;1.80;;;;;;;25.71;59.76;101087.16;1666584;84;21296;-54
2022/07/29 10:19:56;;;;;;;6.22;1.42;;;;;;;25.72;59.56;101077.66;1693329;84;21213;-50
2022/07/29 10:23:06;;;;;;;3.58;1.60;;;;;;;25.74;59.45;101076.83;1632195;85;21239;-53
2022/07/29 10:26:15;;;;;;;4.17;1.57;;;;;;;25.80;59.34;101083.66;1683194;83;21356;-50
2022/07/29 10:29:20;;;;;;;6.67;1.40;;;;;;;25.82;59.19;101084.80;1638523;86;21288;-54
2022/07/29 10:32:47;;;;;;;3.47;1.30;;;;;;;25.82;59.00;101074.44;1638047;87;21607;-55
2022/07/29 10:36:08;;;;;;;4.90;1.60;;;;;;;25.87;58.86;101080.67;1638710;87;21212;-55
2022/07/29 10:39:39;;;;;;;5.10;1.65;;;;;;;25.97;58.70;101069.59;1628369;87;22070;-57
2022/07/29 10:42:48;;;;;;;4.30;1.35;;;;;;;26.03;58.49;101064.37;1674317;84;21226;-55
2022/07/29 10:46:06;;;;;;;5.12;1.47;;;;;;;26.06;58.22;101063.84;1665663;83;21227;-54
2022/07/29 10:49:26;;;;;;;4.92;1.92;;;;;;;25.98;57.85;101074.09;1664599;83;21283;-56
2022/07/29 10:53:00;;;;;;;8.13;2.00;;;;;;;26.04;57.85;101072.53;1654075;86;21243;-56
2022/07/29 10:56:10;;;;;;;3.27;1.70;;;;;;;26.20;57.72;101063.20;1665000;84;21232;-57
2022/07/29 10:59:31;;;;;;;2.98;1.50;;;;;;;26.30;57.46;101065.28;1633709;86;21214;-57
2022/07/29 11:02:50;;;;;;;3.25;1.50;;;;;;;26.31;57.30;101064.16;1676211;83;21596;-56
2022/07/29 11:06:03;;;;;;;4.17;1.50;;;;;;;26.35;57.19;101060.56;1657703;84;21187;-55
2022/07/29 11:09:26;;;;;;;6.70;2.00;;;;;;;26.29;56.73;101062.19;1689616;83;21729;-57
2022/07/29 11:12:51;;;;;;;7.35;1.52;;;;;;;26.17;56.48;101067.08;1670723;84;21251;-58
2022/07/29 11:16:06;;;;;;;6.03;1.50;;;;;;;26.01;56.25;101058.16;1638717;86;21240;-59
2022/07/29 11:19:28;;;;;;;6.17;1.45;;;;;;;26.19;56.37;101058.70;1663067;85;21275;-58
2022/07/29 11:22:42;;;;;;;2.00;1.50;;;;;;;26.38;56.22;101059.20;1651914;84;22023;-58
2022/07/29 11:25:49;;;;;;;4.08;1.42;;;;;;;26.56;56.00;101060.23;1671453;81;21241;-59
2022/07/29 11:29:26;;;;;;;3.87;1.40;;;;;;;26.68;55.85;101055.36;1661716;84;21730;-58
2022/07/29 11:32:53;;;;;;;3.23;1.20;;;;;;;26.79;55.59;101047.87;1676631;85;21571;-58
2022/07/29 11:36:21;;;;;;;7.42;1.30;;;;;;;26.79;55.31;101054.89;1664026;84;21259;-56
2022/07/29 11:39:36;;;;;;;3.47;1.37;;;;;;;26.72;55.06;101047.25;1628494;88;21228;-57
2022/07/29 11:43:09;;;;;;;3.62;1.27;;;;;;;26.69;54.94;101058.45;1629006;87;21284;-58
2022/07/29 11:46:19;;;;;;;6.05;1.55;;;;;;;26.62;54.73;101051.32;1650755;86;21314;-61
2022/07/29 11:49:32;;;;;;;2.47;1.50;;;;;;;26.61;54.62;101053.27;1674476;84;21256;-57
2022/07/29 11:52:52;;;;;;;3.70;1.47;;;;;;;26.65;54.52;101042.39;1653782;86;21272;-58
2022/07/29 11:56:04;;;;;;;5.17;1.35;;;;;;;26.71;54.49;101042.18;1673729;84;21180;-57
2022/07/29 11:59:14;;;;;;;9.25;1.90;;;;;;;26.81;54.42;101041.44;1673122;84;21260;-61
2022/07/29 12:02:23;;;;;;;3.98;1.50;;;;;;;26.93;54.32;101037.88;1676997;84;21701;-56
2022/07/29 12:05:46;;;;;;;6.97;1.50;;;;;;;26.95;54.03;101044.95;1683373;84;22096;-55
2022/07/29 12:08:56;;;;;;;2.45;1.30;;;;;;;26.99;53.82;101032.62;1659759;86;21228;-57
2022/07/29 12:12:08;;;;;;;;;;;;;;;27.02;53.63;101034.89;1652783;86;21275;-57
2022/07/29 12:15:26;;;;;;;2.33;1.50;;;;;;;27.08;53.39;101034.67;1655985;85;20586;-56
2022/07/29 12:18:34;;;;;;;5.62;1.57;;;;;;;27.03;53.20;101033.77;1628155;87;21266;-57
2022/07/29 12:21:59;;;;;;;4.47;1.50;;;;;;;26.95;52.96;101027.23;1659808;83;21248;-58
2022/07/29 12:25:14;;;;;;;3.55;1.50;;;;;;;26.88;52.79;101036.45;1666862;82;21219;-56
2022/07/29 12:28:22;;;;;;;3.33;1.30;;;;;;;26.82;52.66;101028.52;1650941;84;21249;-55
2022/07/29 12:31:38;;;;;;;4.42;1.67;;;;;;;26.86;52.61;101033.87;1647555;85;21764;-56
2022/07/29 12:34:47;;;;;;;4.70;1.40;;;;;;;26.89;52.49;101024.95;1633133;84;21208;-57
2022/07/29 12:37:54;;;;;;;4.67;1.35;;;;;;;26.96;52.43;101022.73;1670271;84;21307;-56
2022/07/29 12:40:57;;;;;;;3.17;1.35;;;;;;;27.01;52.20;101015.77;1656970;85;21252;-54
2022/07/29 12:44:04;;;;;;;1.72;1.20;;;;;;;27.04;52.01;101019.44;1677915;84;21247;-55
2022/07/29 12:47:14;;;;;;;17.45;2.17;;;;;;;27.08;51.88;101017.80;1671646;85;21591;-56
2022/07/29 12:50:25;;;;;;;3.80;1.30;;;;;;;27.10;51.74;101019.77;1624118;87;21350;-55
2022/07/29 12:53:37;;;;;;;5.42;1.30;;;;;;;27.11;51.56;101014.45;1647542;86;21387;-55
2022/07/29 12:56:58;;;;;;;4.85;1.27;;;;;;;27.18;51.50;101015.63;1657406;85;21427;-57
2022/07/29 13:00:14;;;;;;;3.25;1.20;;;;;;;27.24;51.35;101014.55;1656680;85;21588;-57
2022/07/29 13:03:20;;;;;;;3.83;1.47;;;;;;;27.24;51.17;101013.97;1656253;85;21243;-56
2022/07/29 13:06:50;;;;;;;7.42;1.45;;;;;;;27.27;51.01;101023.87;1641498;86;21256;-57
2022/07/29 13:10:01;;;;;;;4.17;1.32;;;;;;;27.19;50.77;101018.17;1678136;83;21216;-58
2022/07/29 13:13:20;;;;;;;3.10;1.40;;;;;;;27.11;50.57;101017.27;1677453;85;21371;-59
2022/07/29 13:16:25;;;;;;;4.67;1.50;;;;;;;27.08;50.50;101012.73;1677780;85;21843;-54
2022/07/29 13:19:45;;;;;;;4.08;1.30;;;;;;;27.01;50.34;101015.77;1664360;83;21273;-55
2022/07/29 13:22:52;;;;;;;2.15;1.30;;;;;;;26.98;50.25;101014.89;1647054;85;21219;-54
2022/07/29 13:26:05;;;;;;;3.97;1.70;;;;;;;26.96;50.20;101007.83;1655864;83;21930;-55
2022/07/29 13:29:11;;;;;;;2.00;1.20;;;;;;;26.99;50.13;101003.10;1656131;85;21258;-55
2022/07/29 13:32:26;;;;;;;5.72;1.50;;;;;;;27.04;50.08;101008.20;1655116;86;21262;-54
2022/07/29 13:35:33;;;;;;;4.53;1.50;;;;;;;27.06;49.90;101005.97;1652852;86;21248;-53
2022/07/29 13:38:41;;;;;;;3.27;1.55;;;;;;;27.09;49.82;101013.86;1630122;88;21386;-55
2022/07/29 13:41:49;;;;;;;3.85;1.47;;;;;;;27.13;49.76;101002.94;1629999;88;21264;-55
2022/07/29 13:45:01;;;;;;;4.50;1.62;;;;;;;27.17;49.64;101009.70;1668046;83;21227;-56
2022/07/29 13:48:12;;;;;;;5.40;1.77;;;;;;;27.17;49.44;101014.77;1694855;84;21295;-55
2022/07/29 13:51:20;;;;;;;6.22;1.50;;;;;;;27.15;49.21;101018.95;1695546;83;21218;-56
2022/07/29 13:54:26;;;;;;;5.17;1.50;;;;;;;27.11;49.05;101011.64;1667477;84;21250;-55
2022/07/29 13:57:35;;;;;;;4.53;1.37;;;;;;;27.08;48.95;101019.76;1656771;84;21267;-54
2022/07/29 14:00:42;;;;;;;4.45;1.37;;;;;;;27.08;48.74;101020.61;1656573;86;21230;-55
2022/07/29 14:03:48;;;;;;;5.10;1.45;;;;;;;26.98;48.60;101019.66;1656636;86;21523;-56
2022/07/29 14:06:57;;;;;;;3.12;1.25;;;;;;;26.90;48.50;101020.15;1656575;86;21246;-57
2022/07/29 14:10:06;;;;;;;2.90;1.30;;;;;;;26.92;48.38;101017.38;1657221;85;21258;-56
2022/07/29 14:13:15;;;;;;;2.52;1.30;;;;;;;26.95;48.35;101012.63;1657008;86;21250;-55
2022/07/29 14:16:24;;;;;;;6.40;1.82;;;;;;;27.01;48.32;101017.71;1656520;86;21258;-55
2022/07/29 14:19:35;;;;;;;5.28;1.75;;;;;;;27.05;48.11;101006.23;1656712;86;21752;-56
2022/07/29 14:22:45;;;;;;;3.12;1.60;;;;;;;27.09;48.01;101012.45;1657435;86;21752;-56
2022/07/29 14:25:55;;;;;;;3.85;1.40;;;;;;;27.13;47.86;101007.97;1657432;86;21238;-56
2022/07/29 14:29:05;;;;;;;2.53;1.43;;;;;;;27.10;47.62;100997.27;1687171;85;21221;-55
2022/07/29 14:32:14;;;;;;;2.87;1.40;;;;;;;27.05;47.47;101001.44;1701220;84;21353;-55
2022/07/29 14:35:22;;;;;;;2.25;1.30;;;;;;;27.04;47.38;100993.28;1691692;83;21210;-54
2022/07/29 14:38:31;;;;;;;3.55;1.67;;;;;;;27.06;47.25;100991.91;1691203;84;22055;-56
2022/07/29 14:41:37;;;;;;;3.65;1.60;;;;;;;27.18;47.10;100989.74;1687998;84;21230;-55
2022/07/29 14:44:49;;;;;;;3.30;1.50;;;;;;;27.24;46.86;100978.81;1657402;86;21239;-54
2022/07/29 14:48:04;;;;;;;2.42;1.42;;;;;;;27.26;46.77;100977.13;1688751;85;21234;-55
2022/07/29 14:51:14;;;;;;;3.83;1.60;;;;;;;27.29;46.69;100983.69;1675360;85;21239;-55
2022/07/29 14:54:28;;;;;;;3.25;1.57;;;;;;;27.30;46.59;100991.85;1688554;84;21224;-56
2022/07/29 14:57:34;;;;;;;5.75;1.40;;;;;;;27.27;46.45;100980.29;1671424;85;21856;-55
2022/07/29 15:00:41;;;;;;;7.00;1.98;;;;;;;27.19;46.33;100981.62;1630234;88;21229;-57